Rosemont, Nebraska
Current Conditions -  °F | °C
As of 8:53 AM on Saturday 25 Oct 2014 (Local Time) from KHSI Reporting Station
Clear Clear  
Wind Chill: 49°   Ceiling: Unl
Heat Index: 49°   Visibility: 10mi
Dew Point: 44°   Wind: 3mph
Humidity: 83%   Direction: 30°NNE
Pressure: 30.12"   Gusts: NA
Location:  40.2644°N, 98.3887°W
Report Text: KHSI 251353Z AUTO 03003KT 10SM CLR 09/07 A3012 RMK AO2 SLP199 T00940067 $
Loading
Personal Weather Stations






























Interactive Weather Map
Tropical Storm Tracking
New forecast layout! Learn more

10-Day Weather Forecast

Advertisements
Track Severe Weather on mobile